• Join FlightAware (Why Join?)
  • Login
  • US Flag 
09:20AM EST


 

Airport Tracker/Info


-or-


 

Live Flight TrackerFlight Track Log ✈ AFL1471 ✈ 22-Jul-2014 ✈ USNN / NJC - UUEE / SVO

Flight Track Log - Related Links

Times and Time Zones

All times are in EDT time to prevent confusion due to time zone crossing. See the AFL1471 flight status page for this flight to view local times or setup timezone preferences in your user account.

Time Position Orientation Groundspeed Altitude Reporting Facility
EDT Latitude Longitude Course Direction KTS MPH feet Rate Location/Type
09:31AM 60.4625 67.7388 262° West 470 541 32,000  Level FlightAware ADS-B (USTR / TJM)
09:31AM 60.4603 67.7078 262° West 471 542 32,000  Level FlightAware ADS-B (USTR / TJM)
09:31AM 60.4589 67.6886 262° West 470 541 32,000  Level FlightAware ADS-B (USTR / TJM)
09:33AM 60.4226 67.1966 262° West 470 541 32,000  Level FlightAware ADS-B (USTR / TJM)
09:34AM 60.4146 67.0926 261° West 473 544 32,000  Level FlightAware ADS-B (USTR / TJM)
09:34AM 60.4128 67.0684 262° West 471 542 32,000  Level FlightAware ADS-B (USTR / TJM)
09:34AM 60.4030 66.9424 262° West 471 542 32,000  Level FlightAware ADS-B (USTR / TJM)
09:35AM 60.3945 66.8340 261° West 473 544 32,000  Level FlightAware ADS-B (USTR / TJM)
09:35AM 60.3917 66.7997 261° West 472 543 32,000  Level FlightAware ADS-B (USTR / TJM)
09:35AM 60.3847 66.7116 261° West 472 543 32,000  Level FlightAware ADS-B (USTR / TJM)
09:36AM 60.3599 66.4058 261° West 472 543 32,000  Level FlightAware ADS-B (USTR / TJM)
09:37AM 60.3475 66.2561 261° West 472 543 32,000  Level FlightAware ADS-B (USTR / TJM)
09:37AM 60.3446 66.2208 260° West 473 544 32,000  Level FlightAware ADS-B (USTR / TJM)
09:37AM 60.3368 66.1283 261° West 473 544 32,000  Level FlightAware ADS-B (USTR / TJM)
09:38AM 60.3300 66.0487 260° West 474 545 32,000  Level FlightAware ADS-B (USTR / TJM)
09:38AM 60.3256 65.9977 261° West 473 544 32,000  Level FlightAware ADS-B (USTR / TJM)
09:38AM 60.3152 65.8765 260° West 474 545 32,000  Level FlightAware ADS-B (USTR / TJM)
09:38AM 60.3148 65.8727 261° West 474 545 32,000  Level FlightAware ADS-B (USTR / TJM)
09:39AM 60.3091 65.8070 261° West 473 544 32,000  Level FlightAware ADS-B (USTR / TJM)
09:39AM 60.3021 65.6481 275° West 471 542 32,000  Level FlightAware ADS-B (USTR / TJM)
09:39AM 60.3040 65.6211 281° West 469 540 32,000  Level FlightAware ADS-B (USTR / TJM)
09:40AM 60.3110 65.5675 288° West 467 537 32,000  Level FlightAware ADS-B (USTR / TJM)
09:40AM 60.3199 65.4829 277° West 473 544 32,000  Level FlightAware ADS-B (USTR / TJM)
09:40AM 60.3203 65.4697 275° West 475 547 32,000  Level FlightAware ADS-B (USTR / TJM)
09:40AM 60.3189 65.3963 262° West 477 549 32,000  Level FlightAware ADS-B (USTR / TJM)
09:40AM 60.3160 65.3656 257° West 478 550 32,000  Level FlightAware ADS-B (USTR / TJM)
09:41AM 60.2989 65.2242 257° West 477 549 32,000  Level FlightAware ADS-B (USTR / TJM)
09:41AM 60.2941 65.1845 256° West 478 550 32,000  Level FlightAware ADS-B (USTR / TJM)
09:41AM 60.2839 65.1011 257° West 477 549 32,000  Level FlightAware ADS-B (USTR / TJM)
09:42AM 60.2752 65.0305 256° West 476 548 32,000  Level FlightAware ADS-B (USTR / TJM)
09:42AM 60.2692 64.9830 256° West 475 547 32,000  Level FlightAware ADS-B (USTR / TJM)
09:42AM 60.2514 64.8418 256° West 476 548 32,000  Level FlightAware ADS-B (USTR / TJM)
09:42AM 60.2504 64.8335 256° West 475 547 32,000  Level FlightAware ADS-B (USTR / TJM)
09:43AM 60.2340 64.7056 256° West 478 550 32,000  Level FlightAware ADS-B (USTR / TJM)
09:43AM 60.2319 64.6899 256° West 478 550 32,000  Level FlightAware ADS-B (USTR / TJM)
09:43AM 60.2174 64.5765 256° West 478 550 32,000  Level FlightAware ADS-B (USTR / TJM)
09:44AM 60.2073 64.4988 255° West 479 551 32,000  Level FlightAware ADS-B (USTR / TJM)
09:44AM 60.2016 64.4547 256° West 478 550 32,000  Level FlightAware ADS-B (USTR / TJM)
09:44AM 60.1850 64.3285 255° West 480 552 32,000  Level FlightAware ADS-B (USTR / TJM)
09:44AM 60.1832 64.3148 256° West 480 552 32,000  Level FlightAware ADS-B (USTR / TJM)
09:45AM 60.1670 64.1921 256° West 480 552 32,000  Level FlightAware ADS-B (USTR / TJM)
09:45AM 60.1624 64.1571 255° West 481 554 32,000  Level FlightAware ADS-B (USTR / TJM)
09:45AM 60.1459 64.0261 258° West 483 556 32,000  Level FlightAware ADS-B (USTR / TJM)
09:46AM 60.1430 63.9960 259° West 484 557 32,000  Level FlightAware ADS-B (USTR / TJM)
09:46AM 60.1356 63.8888 265° West 486 559 32,000  Level FlightAware ADS-B (USTR / TJM)
09:46AM 60.1327 63.7999 268° West 486 559 32,000  Level FlightAware ADS-B (USTR / TJM)
09:47AM 60.1326 63.7300 271° West 485 558 32,000 120 Level FlightAware ADS-B (USTR / TJM)
09:47AM 60.1339 63.6318 271° West 483 556 32,100 300 Climbing FlightAware ADS-B (USTR / TJM)
09:47AM 60.1344 63.5793 272° West 482 555 32,200 600 Climbing FlightAware ADS-B (USTR / TJM)
09:48AM 60.1357 63.4512 271° West 484 557 32,500 780 Climbing FlightAware ADS-B (USTR / TJM)
09:48AM 60.1358 63.4378 272° West 485 558 32,600 660 Climbing FlightAware ADS-B (USTR / TJM)
09:48AM 60.1367 63.3344 272° West 486 559 32,800 420 Climbing FlightAware ADS-B (USTR / TJM)
09:48AM 60.1372 63.2721 271° West 487 560 32,900 660 Climbing FlightAware ADS-B (USTR / TJM)
09:49AM 60.1380 63.1631 271° West 491 565 33,200 600 Climbing FlightAware ADS-B (USTR / TJM)
09:49AM 60.1386 63.0825 271° West 493 567 33,300 360 Climbing FlightAware ADS-B (USTR / TJM)
09:49AM 60.1389 63.0337 271° West 495 570 33,400 420 Climbing FlightAware ADS-B (USTR / TJM)
09:51AM 60.1408 62.6444 271° West 501 577 34,000 360 Climbing FlightAware ADS-B (USTR / TJM)
09:51AM 60.1408 62.6178 270° West 501 577 34,000  Level FlightAware ADS-B (USTR / TJM)
09:51AM 60.1412 62.4992 271° West 501 577 34,000  Level FlightAware ADS-B (USTR / TJM)
09:51AM 60.1413 62.4363 270° West 498 573 34,000  Level FlightAware ADS-B (USTR / TJM)
09:52AM 60.1414 62.3687 271° West 496 571 34,000  Level FlightAware ADS-B (USTR / TJM)
09:52AM 60.1415 62.2648 270° West 495 570 34,000  Level FlightAware ADS-B (USTR / TJM)
09:52AM 60.1416 62.2251 270° West 495 570 34,000  Level FlightAware ADS-B (USTR / TJM)
09:53AM 60.1415 62.0874 270° West 495 570 34,000  Level FlightAware ADS-B (USTR / TJM)
09:53AM 60.1414 62.0708 270° West 495 570 34,000  Level FlightAware ADS-B (USTR / TJM)
09:53AM 60.1413 61.9515 270° West 495 570 34,000  Level FlightAware ADS-B (USTR / TJM)
09:53AM 60.1411 61.8863 270° West 494 568 34,000  Level FlightAware ADS-B (USTR / TJM)
09:54AM 60.1409 61.8082 270° West 494 568 34,000  Level FlightAware ADS-B (USTR / TJM)
09:54AM 60.1407 61.7723 270° West 494 568 34,000  Level FlightAware ADS-B (USTR / TJM)
09:54AM 60.1404 61.6817 270° West 494 568 34,000  Level FlightAware ADS-B (USTR / TJM)
09:54AM 60.1403 61.6449 270° West 494 568 34,000 -60 Level FlightAware ADS-B (USTR / TJM)
11:28AM 57.7123 39.1498 232° Southwest 432 497 30,700 -120 Descending FlightAware ADS-B (UUWV / MOW)
11:31AM 57.5121 38.6723 232° Southwest 430 495 28,100 -900 Descending FlightAware ADS-B (UUWV / MOW)
11:31AM 57.4729 38.5798 232° Southwest 432 497 28,000 -120 Descending FlightAware ADS-B (UUWV / MOW)
11:32AM 57.4492 38.5241 232° Southwest 431 496 28,000  Level FlightAware ADS-B (UUWV / MOW)
11:32AM 57.3978 38.4040 232° Southwest 431 496 28,000  Level FlightAware ADS-B (UUWV / MOW)
11:33AM 57.3606 38.3172 232° Southwest 432 497 28,000 -720 Level FlightAware ADS-B (UUWV / MOW)
11:33AM 57.3234 38.2310 231° Southwest 436 502 27,300 -2,340 Descending FlightAware ADS-B (UUWV / MOW)
11:34AM 57.2854 38.1401 233° Southwest 450 518 25,700 -2,760 Descending FlightAware ADS-B (UUWV / MOW)
11:35AM 57.2399 38.0287 233° Southwest 437 503 23,900 -2,400 Descending FlightAware ADS-B (UUWV / MOW)
11:35AM 57.1760 37.8748 232° Southwest 420 483 22,100 -2,460 Descending FlightAware ADS-B (UUWV / MOW)
11:36AM 57.1411 37.7924 230° Southwest 415 478 20,800 -2,280 Descending FlightAware ADS-B (UUWV / MOW)
11:36AM 57.1191 37.7571 218° Southwest 404 465 20,400 -1,440 Descending FlightAware ADS-B (UUWV / MOW)
11:36AM 57.0948 37.7346 201° Southwest 385 443 20,100 -1,620 Descending FlightAware ADS-B (UUWV / MOW)
11:37AM 57.0433 37.7114 193° South 374 430 19,200 -1,860 Descending FlightAware ADS-B (UUWV / MOW)
11:38AM 56.9771 37.6835 193° South 368 423 17,900 -1,800 Descending FlightAware ADS-B (UUWV / MOW)
11:38AM 56.8970 37.6495 193° South 362 417 16,600 -1,620 Descending FlightAware ADS-B (UUWV / MOW)
11:39AM 56.8015 37.6096 193° South 352 405 15,000 -1,320 Descending FlightAware ADS-B (UUWV / MOW)
11:40AM 56.7464 37.5869 193° South 345 397 14,300 -960 Descending FlightAware ADS-B (UUWV / MOW)
11:45AM 56.3767 37.3496 208° Southwest 295 339 10,300 -960 Descending FlightAware ADS-B (UUWV / MOW)
11:45AM 56.2986 37.2733 208° Southwest 289 333 9,500 -1,200 Descending FlightAware ADS-B (UUWV / MOW)
11:46AM 56.2631 37.2388 208° Southwest 285 328 8,800 -1,440 Descending FlightAware ADS-B (UUWV / MOW)
11:46AM 56.2327 37.2095 208° Southwest 281 323 8,100 -1,620 Descending FlightAware ADS-B (UUWV / MOW)
11:47AM 56.2025 37.1804 208° Southwest 279 321 7,400 -1,260 Descending FlightAware ADS-B (UUWV / MOW)
11:47AM 56.1801 37.1588 208° Southwest 272 313 7,200 -660 Descending FlightAware ADS-B (UUWV / MOW)
11:47AM 56.1628 37.1421 208° Southwest 262 302 7,000 -1,080 Descending FlightAware ADS-B (UUWV / MOW)
11:48AM 56.1373 37.1176 208° Southwest 254 292 6,400 -1,200 Descending FlightAware ADS-B (UUWV / MOW)
11:48AM 56.1174 37.0985 208° Southwest 256 295 6,100 -1,200 Descending FlightAware ADS-B (UUWV / MOW)
11:48AM 56.1010 37.0828 208° Southwest 250 288 5,800 -1,320 Descending FlightAware ADS-B (UUWV / MOW)
11:49AM 56.0733 37.0558 209° Southwest 252 290 5,200 -780 Descending FlightAware ADS-B (UUWV / MOW)
11:52AM 55.9209 37.0615 76° East 185 213 2,800 -600 Descending FlightAware ADS-B (UUWV / MOW)
11:56AM 55.9603 37.3230 75° East 134 154 1,200 -540 Descending FlightAware ADS-B (UUWV / MOW)
11:56AM 55.9632 37.3428 75° East 138 159 1,000 -720 Descending FlightAware ADS-B (UUWV / MOW)
11:56AM 55.9646 37.3519 75° East 136 157 800 -780 Descending FlightAware ADS-B (UUWV / MOW)
11:59AM 55.9726 37.4146 77° East  Level Estimated
12:00PM 55.9726 37.4146 North  Level Estimated
12:01PM 55.9726 37.4146 North  Level Estimated
12:02PM 55.9726 37.4146 North  Level Estimated